Time;durP1;ratioP1;P1;durP2;ratioP2;P2;SDS_P1;SDS_P2;PMS_P1;PMS_P2;Temp;Humidity;BMP_temperature;BMP_pressure;BME280_temperature;BME280_humidity;BME280_pressure;Samples;Min_cycle;Max_cycle;Signal;HPM_P1;HPM_P2
2023/11/19 00:01:56;;;;;;;58.13;47.17;;;;;;;4.06;100.00;96675.47;5034387;28;20437;-63
2023/11/19 00:04:22;;;;;;;56.47;45.17;;;;;;;3.91;100.00;96674.50;5039682;28;20033;-63
2023/11/19 00:06:47;;;;;;;58.72;44.10;;;;;;;3.84;100.00;96668.75;5028167;28;20042;-63
2023/11/19 00:09:13;;;;;;;55.58;38.72;;;;;;;3.83;100.00;96657.50;5039124;28;20455;-62
2023/11/19 00:11:38;;;;;;;50.00;44.88;;;;;;;3.80;100.00;96642.03;5023744;28;20132;-63
2023/11/19 00:14:04;;;;;;;44.30;36.55;;;;;;;3.75;100.00;96638.78;5022874;28;20053;-62
2023/11/19 00:16:31;;;;;;;37.78;32.47;;;;;;;3.73;100.00;96638.03;5012610;28;20032;-62
2023/11/19 00:18:57;;;;;;;38.33;33.70;;;;;;;3.68;100.00;96625.25;5018719;28;20486;-63
2023/11/19 00:21:22;;;;;;;40.05;34.08;;;;;;;3.66;100.00;96626.22;5039566;28;20112;-63
2023/11/19 00:23:48;;;;;;;40.08;32.75;;;;;;;3.60;100.00;96623.94;5019740;28;20044;-63
2023/11/19 00:26:14;;;;;;;33.50;30.33;;;;;;;3.56;100.00;96610.22;5026125;28;20021;-62
2023/11/19 00:28:40;;;;;;;47.45;42.50;;;;;;;3.54;100.00;96612.91;5019952;28;20294;-62
2023/11/19 00:31:05;;;;;;;64.82;58.13;;;;;;;3.53;100.00;96610.38;5025577;28;20138;-63
2023/11/19 00:33:31;;;;;;;74.97;67.63;;;;;;;3.55;100.00;96608.53;5019391;28;20068;-62
2023/11/19 00:35:56;;;;;;;51.90;46.67;;;;;;;3.54;100.00;96609.44;5017869;28;20056;-63
2023/11/19 00:38:21;;;;;;;49.97;45.00;;;;;;;3.49;100.00;96606.25;5030368;28;20402;-62
2023/11/19 00:40:47;;;;;;;47.20;42.38;;;;;;;3.41;100.00;96593.59;5017632;28;20050;-63
2023/11/19 00:43:13;;;;;;;42.55;38.42;;;;;;;3.42;100.00;96593.50;5023345;28;20049;-62
2023/11/19 00:45:38;;;;;;;38.25;34.55;;;;;;;3.43;100.00;96583.94;5024717;28;20068;-63
2023/11/19 00:48:04;;;;;;;40.55;36.55;;;;;;;3.44;100.00;96586.50;5022551;28;20037;-62
2023/11/19 00:50:31;;;;;;;42.85;38.63;;;;;;;3.41;100.00;96593.59;5025363;28;20407;-62
2023/11/19 00:52:56;;;;;;;38.50;34.83;;;;;;;3.39;100.00;96598.88;5017540;28;20041;-63
2023/11/19 00:55:21;;;;;;;35.30;31.63;;;;;;;3.40;100.00;96587.53;5023301;28;20030;-62
2023/11/19 00:57:47;;;;;;;30.02;27.33;;;;;;;3.37;100.00;96595.50;5023327;28;20026;-63
2023/11/19 01:00:19;;;;;;;31.27;28.50;;;;;;;3.35;100.00;96592.13;5025193;28;20033;-62
2023/11/19 01:02:45;;;;;;;41.22;37.30;;;;;;;3.30;100.00;96587.13;5019860;28;20033;-63
2023/11/19 01:05:13;;;;;;;41.58;37.47;;;;;;;3.33;100.00;96593.97;5026527;28;20037;-63
2023/11/19 01:07:39;;;;;;;34.03;30.52;;;;;;;3.36;100.00;96591.22;5018824;28;20037;-63
2023/11/19 01:10:05;;;;;;;34.53;31.13;;;;;;;3.30;100.00;96583.72;5024227;28;20056;-63
2023/11/19 01:12:31;;;;;;;37.35;33.92;;;;;;;3.26;100.00;96577.81;5034814;28;20136;-63
2023/11/19 01:14:57;;;;;;;35.10;31.98;;;;;;;3.26;100.00;96567.38;5020213;28;20057;-62
2023/11/19 01:17:23;;;;;;;33.72;30.83;;;;;;;3.26;100.00;96561.34;5032520;28;20025;-63
2023/11/19 01:19:50;;;;;;;35.72;32.33;;;;;;;3.35;100.00;96554.84;5027065;28;20032;-63
2023/11/19 01:22:15;;;;;;;31.58;23.73;;;;;;;3.28;100.00;96544.72;5026177;28;20021;-63
2023/11/19 01:24:40;;;;;;;27.35;24.60;;;;;;;3.23;100.00;96535.50;5021393;28;20084;-63
2023/11/19 01:27:06;;;;;;;29.05;24.30;;;;;;;3.18;100.00;96535.72;5029982;28;20029;-63
2023/11/19 01:29:31;;;;;;;33.38;24.70;;;;;;;3.19;100.00;96529.59;5021115;28;20026;-63
2023/11/19 01:31:56;;;;;;;38.88;35.15;;;;;;;3.21;100.00;96527.75;5021583;28;20034;-63
2023/11/19 01:34:22;;;;;;;29.67;26.60;;;;;;;3.18;100.00;96532.25;5023290;28;20025;-63
2023/11/19 01:36:48;;;;;;;36.50;33.17;;;;;;;3.15;100.00;96526.28;5033143;28;20028;-63
2023/11/19 01:39:16;;;;;;;33.97;30.75;;;;;;;3.14;100.00;96516.78;5016232;28;20048;-63
2023/11/19 01:41:41;;;;;;;26.35;23.50;;;;;;;3.12;100.00;96513.41;5018614;28;20506;-63
2023/11/19 01:44:06;;;;;;;26.33;23.52;;;;;;;3.06;100.00;96516.34;5024012;28;20124;-63
2023/11/19 01:46:35;;;;;;;39.70;35.85;;;;;;;3.05;100.00;96519.00;5022480;28;20039;-63
2023/11/19 01:49:02;;;;;;;29.95;26.67;;;;;;;3.06;100.00;96515.47;5019835;28;20033;-63
2023/11/19 01:51:28;;;;;;;25.65;23.05;;;;;;;3.09;100.00;96518.78;5021646;28;20030;-63
2023/11/19 01:53:55;;;;;;;29.70;24.02;;;;;;;3.07;100.00;96512.81;5019576;28;20116;-63
2023/11/19 01:56:21;;;;;;;22.05;19.85;;;;;;;3.04;100.00;96509.50;5018686;28;20068;-63
2023/11/19 01:58:49;;;;;;;22.50;20.10;;;;;;;3.12;100.00;96513.41;5022707;28;20037;-63
2023/11/19 02:01:15;;;;;;;28.17;25.70;;;;;;;3.13;100.00;96509.91;5024113;28;20498;-63
2023/11/19 02:03:41;;;;;;;29.08;26.25;;;;;;;3.03;100.00;96508.69;5019322;28;20052;-63
2023/11/19 02:06:07;;;;;;;29.73;27.02;;;;;;;2.98;100.00;96515.84;5022637;28;20829;-63
2023/11/19 02:08:32;;;;;;;40.58;36.55;;;;;;;2.98;100.00;96505.44;5021358;28;20061;-63
2023/11/19 02:10:58;;;;;;;37.40;33.80;;;;;;;2.96;100.00;96507.28;5018876;28;20112;-63
2023/11/19 02:13:28;;;;;;;39.13;35.50;;;;;;;2.91;100.00;96501.47;5032027;28;20026;-62
2023/11/19 02:15:54;;;;;;;29.38;24.02;;;;;;;2.89;100.00;96501.56;5027611;28;20084;-62
2023/11/19 02:18:27;;;;;;;48.47;35.53;;;;;;;2.92;100.00;96492.75;5018674;28;20038;-63
2023/11/19 02:20:54;;;;;;;73.75;49.92;;;;;;;3.00;100.00;96493.22;5018072;28;20036;-63
2023/11/19 02:23:20;;;;;;;52.80;47.47;;;;;;;3.06;100.00;96481.66;5033466;28;20576;-63
2023/11/19 02:26:01;;;;;;;36.28;32.72;;;;;;;3.03;100.00;96476.59;5031590;28;20045;-63
2023/11/19 02:28:26;;;;;;;23.27;20.77;;;;;;;2.95;100.00;96471.78;5014866;28;20030;-63
2023/11/19 02:30:53;;;;;;;33.80;30.52;;;;;;;2.91;100.00;96472.84;5019344;28;20041;-63
2023/11/19 02:33:18;;;;;;;47.38;42.38;;;;;;;2.92;100.00;96469.34;5022866;28;20114;-63
2023/11/19 02:35:44;;;;;;;53.97;39.33;;;;;;;2.91;100.00;96465.91;5022264;28;20047;-63
2023/11/19 02:38:09;;;;;;;41.78;32.05;;;;;;;2.89;100.00;96464.28;5027095;28;20498;-63
2023/11/19 02:40:35;;;;;;;31.80;26.58;;;;;;;2.83;100.00;96463.69;5028232;28;20399;-62
2023/11/19 02:43:00;;;;;;;26.55;23.38;;;;;;;2.81;100.00;96462.91;5027847;28;20041;-63
2023/11/19 02:45:26;;;;;;;25.60;21.13;;;;;;;2.79;100.00;96461.28;5015280;28;20036;-63
2023/11/19 02:47:52;;;;;;;20.08;17.42;;;;;;;3.15;100.00;96460.41;5014842;28;20117;-63
2023/11/19 02:50:24;;;;;;;22.55;20.13;;;;;;;3.05;100.00;96464.38;5022852;28;20029;-63
2023/11/19 02:52:52;;;;;;;22.75;20.10;;;;;;;2.99;100.00;96450.75;5027950;28;20112;-63
2023/11/19 02:55:18;;;;;;;21.85;19.27;;;;;;;2.95;100.00;96454.44;5038356;28;20033;-62
2023/11/19 02:57:47;;;;;;;20.63;18.52;;;;;;;2.97;100.00;96449.13;5025555;28;20071;-62
2023/11/19 03:00:23;;;;;;;19.08;17.08;;;;;;;2.96;100.00;96447.44;5037933;28;20033;-63
2023/11/19 03:02:58;;;;;;;;;;;;;;;2.93;100.00;96439.81;5027908;28;20033;-63
2023/11/19 03:05:24;;;;;;;17.67;15.75;;;;;;;2.86;100.00;96439.25;5026604;28;19916;-63
2023/11/19 03:07:49;;;;;;;17.95;16.15;;;;;;;2.79;100.00;96438.75;5038389;28;20053;-63
2023/11/19 03:10:15;;;;;;;20.42;18.20;;;;;;;2.77;100.00;96435.38;5022014;28;20021;-63
2023/11/19 03:12:41;;;;;;;21.88;19.65;;;;;;;2.75;100.00;96433.75;5037494;28;20089;-63
2023/11/19 03:15:09;;;;;;;19.98;17.45;;;;;;;2.71;100.00;96435.66;5023949;28;20111;-63
2023/11/19 03:17:42;;;;;;;19.38;16.55;;;;;;;2.70;100.00;96439.19;5034618;28;20045;-63
2023/11/19 03:20:10;;;;;;;16.63;14.75;;;;;;;2.75;100.00;96438.97;5032293;28;20414;-63
2023/11/19 03:22:41;;;;;;;23.55;21.00;;;;;;;2.77;100.00;96435.38;5032018;28;20029;-63
2023/11/19 03:25:08;;;;;;;20.77;16.38;;;;;;;2.77;100.00;96432.78;5034044;28;20096;-63
2023/11/19 03:27:38;;;;;;;16.38;14.70;;;;;;;2.82;100.00;96433.38;5018285;28;20398;-63
2023/11/19 03:30:04;;;;;;;21.55;19.75;;;;;;;2.85;100.00;96434.97;5049689;28;20014;-63
2023/11/19 03:32:32;;;;;;;21.83;19.63;;;;;;;2.80;100.00;96422.22;5036923;28;20029;-63
2023/11/19 03:34:57;;;;;;;15.93;14.43;;;;;;;2.77;100.00;96424.97;5036690;28;20031;-64
2023/11/19 03:37:23;;;;;;;16.77;15.18;;;;;;;2.77;100.00;96424.13;5019046;28;20022;-63
2023/11/19 03:39:49;;;;;;;21.50;19.38;;;;;;;2.71;100.00;96420.06;5031078;28;20029;-63
2023/11/19 03:42:14;;;;;;;23.10;20.80;;;;;;;2.72;100.00;96416.53;5025888;28;20113;-64
2023/11/19 03:44:40;;;;;;;24.20;19.60;;;;;;;2.70;100.00;96415.78;5023599;28;20057;-63
2023/11/19 03:47:06;;;;;;;27.27;24.90;;;;;;;2.69;100.00;96409.75;5024581;28;20112;-63
2023/11/19 03:49:31;;;;;;;28.77;26.23;;;;;;;2.71;100.00;96414.84;5031007;28;20106;-63
2023/11/19 03:51:57;;;;;;;21.98;19.92;;;;;;;2.68;100.00;96405.47;5036067;28;20029;-63
2023/11/19 03:54:23;;;;;;;29.75;26.80;;;;;;;2.72;100.00;96395.72;5024592;28;20052;-63
2023/11/19 03:56:48;;;;;;;23.63;21.10;;;;;;;2.70;100.00;96388.03;5023528;28;20664;-63
2023/11/19 03:59:15;;;;;;;25.05;21.13;;;;;;;2.70;100.00;96393.22;5036945;28;20021;-63
2023/11/19 04:01:40;;;;;;;23.88;21.30;;;;;;;2.74;100.00;96393.91;5032212;28;20033;-63
2023/11/19 04:04:06;;;;;;;26.00;19.30;;;;;;;2.77;100.00;96393.78;5036063;28;20405;-63
2023/11/19 04:06:31;;;;;;;21.73;19.35;;;;;;;2.79;100.00;96391.06;5018116;28;20018;-63
2023/11/19 04:08:57;;;;;;;20.77;18.67;;;;;;;2.77;100.00;96393.78;5016346;28;20022;-63
2023/11/19 04:11:22;;;;;;;18.23;16.50;;;;;;;2.79;100.00;96397.13;5018708;28;20109;-63
2023/11/19 04:13:47;;;;;;;16.52;14.98;;;;;;;2.81;100.00;96394.44;5017884;28;20033;-63
2023/11/19 04:16:14;;;;;;;18.20;15.75;;;;;;;2.79;100.00;96399.72;5034384;28;20021;-63
2023/11/19 04:18:40;;;;;;;15.98;14.35;;;;;;;2.78;100.00;96395.44;5035822;28;20576;-63
2023/11/19 04:21:07;;;;;;;14.85;13.43;;;;;;;2.85;100.00;96396.81;5023463;28;20021;-63
2023/11/19 04:23:32;;;;;;;15.43;14.13;;;;;;;2.93;100.00;96396.44;5027017;28;20029;-63
2023/11/19 04:25:58;;;;;;;16.75;15.18;;;;;;;3.06;100.00;96393.19;5035239;28;20032;-63
2023/11/19 04:28:26;;;;;;;13.93;11.15;;;;;;;3.04;100.00;96387.22;5028398;28;20026;-63
2023/11/19 04:30:52;;;;;;;11.75;10.43;;;;;;;2.98;100.00;96389.22;5029807;28;20505;-63
2023/11/19 04:33:17;;;;;;;10.70;9.65;;;;;;;2.94;100.00;96395.50;5031272;28;20017;-63
2023/11/19 04:35:43;;;;;;;10.60;8.93;;;;;;;2.94;100.00;96395.50;5036665;28;20022;-63
2023/11/19 04:38:08;;;;;;;10.77;8.25;;;;;;;2.98;100.00;96393.56;5028126;28;20014;-63
2023/11/19 04:40:33;;;;;;;9.23;8.10;;;;;;;2.96;100.00;96393.69;5029609;28;20123;-63
2023/11/19 04:42:59;;;;;;;10.45;9.45;;;;;;;2.92;100.00;96402.56;5018256;28;20394;-63
2023/11/19 04:45:24;;;;;;;16.52;14.82;;;;;;;3.07;100.00;96402.69;5029165;28;20038;-63
2023/11/19 04:47:50;;;;;;;15.57;13.80;;;;;;;3.09;100.00;96404.28;5030380;28;20036;-63
2023/11/19 04:50:15;;;;;;;13.85;12.52;;;;;;;3.17;100.00;96397.84;5030833;28;20060;-63
2023/11/19 04:52:42;;;;;;;14.00;12.80;;;;;;;3.09;100.00;96399.09;5026022;28;20567;-63
2023/11/19 04:55:07;;;;;;;15.23;14.00;;;;;;;3.02;100.00;96389.94;5016785;28;20030;-63
2023/11/19 04:57:33;;;;;;;15.63;14.27;;;;;;;2.98;100.00;96386.63;5015847;28;20554;-63
2023/11/19 04:59:58;;;;;;;22.73;18.73;;;;;;;2.98;100.00;96385.78;5017709;28;20098;-63
2023/11/19 05:02:24;;;;;;;20.45;18.48;;;;;;;2.98;100.00;96378.81;5018312;28;20033;-63
2023/11/19 05:04:49;;;;;;;16.70;15.13;;;;;;;2.92;100.00;96376.53;5021833;28;20048;-63
2023/11/19 05:07:14;;;;;;;15.20;13.80;;;;;;;2.90;100.00;96372.31;5026633;28;20025;-63
2023/11/19 05:09:40;;;;;;;18.77;16.80;;;;;;;2.86;100.00;96362.09;5026244;28;20057;-63
2023/11/19 05:12:08;;;;;;;19.98;17.95;;;;;;;2.94;100.00;96360.84;5027365;28;20025;-63
2023/11/19 05:14:33;;;;;;;27.52;24.83;;;;;;;2.88;100.00;96364.63;5026828;28;20025;-63
2023/11/19 05:16:59;;;;;;;25.42;23.23;;;;;;;2.84;100.00;96353.53;5022316;28;20108;-63
2023/11/19 05:19:24;;;;;;;19.42;15.85;;;;;;;2.78;100.00;96361.66;5023938;28;20038;-63
2023/11/19 05:21:52;;;;;;;20.90;18.90;;;;;;;3.15;100.00;96357.13;5020554;28;20100;-63
2023/11/19 05:24:17;;;;;;;24.50;22.52;;;;;;;3.34;100.00;96355.34;5033954;28;20039;-63
2023/11/19 05:26:43;;;;;;;16.85;14.93;;;;;;;3.40;100.00;96355.03;5017246;28;20034;-63
2023/11/19 05:29:08;;;;;;;27.48;24.88;;;;;;;3.30;100.00;96360.69;5015829;28;20032;-63
2023/11/19 05:31:33;;;;;;;24.65;22.42;;;;;;;3.29;100.00;96360.78;5015174;28;20022;-63
2023/11/19 05:33:59;;;;;;;25.02;22.63;;;;;;;3.21;100.00;96355.16;5015450;28;20501;-63
2023/11/19 05:36:24;;;;;;;23.17;20.88;;;;;;;3.14;100.00;96352.03;5037001;28;20049;-63
2023/11/19 05:38:50;;;;;;;23.15;20.58;;;;;;;3.05;100.00;96350.75;5015751;28;20026;-63
2023/11/19 05:41:15;;;;;;;25.98;22.42;;;;;;;2.98;100.00;96351.97;5028820;28;20030;-63
2023/11/19 05:43:41;;;;;;;24.35;22.05;;;;;;;2.96;100.00;96359.00;5016265;28;20033;-64
2023/11/19 05:46:07;;;;;;;23.15;21.05;;;;;;;2.97;100.00;96360.69;5017315;28;20022;-63
2023/11/19 05:48:33;;;;;;;24.30;21.90;;;;;;;2.96;100.00;96356.41;5026282;28;20494;-63
2023/11/19 05:50:58;;;;;;;24.48;22.02;;;;;;;2.96;100.00;96366.81;5023340;28;20385;-63
2023/11/19 05:53:24;;;;;;;21.80;19.70;;;;;;;2.93;100.00;96359.16;5020227;28;20888;-63
2023/11/19 05:55:55;;;;;;;21.40;19.40;;;;;;;2.91;100.00;96358.41;5030967;28;20089;-63
2023/11/19 05:58:25;;;;;;;21.52;19.52;;;;;;;2.91;100.00;96353.19;5017480;28;20505;-63
2023/11/19 06:00:51;;;;;;;20.67;18.50;;;;;;;2.90;100.00;96354.13;5029394;28;20033;-63
2023/11/19 06:03:17;;;;;;;20.23;17.77;;;;;;;2.87;100.00;96349.91;5028660;28;20083;-63
2023/11/19 06:05:45;;;;;;;19.05;17.33;;;;;;;2.82;100.00;96347.56;5020922;28;20037;-63
2023/11/19 06:08:12;;;;;;;18.92;17.33;;;;;;;2.79;100.00;96371.13;5031542;28;20033;-63
2023/11/19 06:10:39;;;;;;;17.40;15.85;;;;;;;2.77;100.00;96372.09;5019714;28;20471;-63
2023/11/19 06:13:05;;;;;;;20.50;18.38;;;;;;;2.76;100.00;96370.44;5014987;28;20521;-63
2023/11/19 06:15:32;;;;;;;20.00;18.10;;;;;;;2.77;100.00;96372.97;5029060;28;20120;-63
2023/11/19 06:17:59;;;;;;;20.42;18.52;;;;;;;2.77;100.00;96366.91;5022444;28;20046;-64
2023/11/19 06:20:25;;;;;;;18.95;16.95;;;;;;;2.71;100.00;96371.50;5018590;28;20398;-64
2023/11/19 06:22:50;;;;;;;24.08;22.20;;;;;;;2.71;100.00;96373.25;5025950;28;20049;-63
2023/11/19 06:25:16;;;;;;;18.33;16.60;;;;;;;2.70;100.00;96366.38;5025359;28;20028;-63
2023/11/19 06:27:42;;;;;;;19.55;17.75;;;;;;;2.74;100.00;96367.06;5016009;28;20104;-63
2023/11/19 06:30:08;;;;;;;21.38;19.33;;;;;;;2.69;100.00;96359.50;5022237;28;20033;-63
2023/11/19 06:32:34;;;;;;;18.90;17.00;;;;;;;2.67;100.00;96363.94;5020399;28;20490;-63
2023/11/19 06:34:59;;;;;;;21.52;19.60;;;;;;;2.66;100.00;96360.50;5028946;28;20038;-63
2023/11/19 06:37:25;;;;;;;22.98;20.65;;;;;;;2.65;100.00;96366.63;5026805;28;20038;-63
2023/11/19 06:39:50;;;;;;;21.75;19.75;;;;;;;2.68;100.00;96363.00;5015589;28;20130;-63
2023/11/19 06:42:15;;;;;;;28.52;18.95;;;;;;;2.67;100.00;96366.53;5029326;28;20036;-64
2023/11/19 06:44:41;;;;;;;22.52;20.85;;;;;;;2.69;100.00;96368.16;5033022;28;20097;-63
2023/11/19 06:47:06;;;;;;;25.05;23.13;;;;;;;2.71;100.00;96363.69;5017785;28;20033;-63
2023/11/19 06:49:32;;;;;;;26.83;24.63;;;;;;;2.77;100.00;96361.72;5018659;28;20033;-63
2023/11/19 06:51:58;;;;;;;28.48;25.83;;;;;;;2.86;100.00;96356.88;5028253;28;20033;-63
2023/11/19 06:54:23;;;;;;;28.88;26.38;;;;;;;2.89;100.00;96349.84;5022242;28;20030;-63
2023/11/19 06:56:48;;;;;;;22.42;20.15;;;;;;;2.89;100.00;96344.63;5023956;28;20044;-63
2023/11/19 06:59:14;;;;;;;24.77;22.27;;;;;;;2.85;100.00;96342.19;5019127;28;20026;-64
2023/11/19 07:01:43;;;;;;;30.52;27.92;;;;;;;2.83;100.00;96345.78;5020514;28;20025;-63
2023/11/19 07:04:12;;;;;;;20.33;18.17;;;;;;;2.83;100.00;96348.38;5019524;28;20112;-64
2023/11/19 07:06:40;;;;;;;17.63;16.05;;;;;;;2.84;100.00;96342.25;5016363;28;20489;-63
2023/11/19 07:09:09;;;;;;;19.73;16.50;;;;;;;2.93;100.00;96346.16;5024417;28;20033;-63
2023/11/19 07:11:36;;;;;;;20.50;18.30;;;;;;;2.97;100.00;96342.47;5019069;28;20105;-63
2023/11/19 07:14:02;;;;;;;18.35;16.42;;;;;;;2.95;100.00;96337.38;5024091;28;20029;-63
2023/11/19 07:16:28;;;;;;;19.38;17.38;;;;;;;2.97;100.00;96338.13;5044410;28;20116;-63
2023/11/19 07:18:53;;;;;;;41.97;36.60;;;;;;;3.02;100.00;96343.09;5023433;28;20128;-63
2023/11/19 07:21:19;;;;;;;46.50;34.70;;;;;;;3.14;100.00;96337.25;5019638;28;20109;-63
2023/11/19 07:23:46;;;;;;;39.67;35.58;;;;;;;3.15;100.00;96340.69;5022591;28;20483;-64
2023/11/19 07:26:12;;;;;;;35.53;31.02;;;;;;;3.13;100.00;96338.16;5020115;28;20053;-63
2023/11/19 07:28:37;;;;;;;40.28;36.75;;;;;;;3.11;100.00;96347.81;5024216;28;20044;-63
2023/11/19 07:31:03;;;;;;;27.83;24.90;;;;;;;3.09;100.00;96348.81;5030290;28;20041;-62
2023/11/19 07:33:29;;;;;;;31.30;27.45;;;;;;;3.09;100.00;96352.25;5023462;28;20025;-63
2023/11/19 07:35:55;;;;;;;27.77;22.10;;;;;;;3.13;100.00;96350.34;5026168;28;20037;-63
2023/11/19 07:38:20;;;;;;;22.05;19.73;;;;;;;3.17;100.00;96354.47;5026370;28;20029;-64
2023/11/19 07:40:45;;;;;;;21.20;19.10;;;;;;;3.22;100.00;96357.66;5023655;28;20083;-63
2023/11/19 07:43:11;;;;;;;27.23;24.88;;;;;;;3.24;100.00;96355.00;5021916;28;20031;-63
2023/11/19 07:45:36;;;;;;;36.67;32.97;;;;;;;3.27;100.00;96354.81;5021459;28;20029;-63
2023/11/19 07:48:01;;;;;;;75.63;68.93;;;;;;;3.27;100.00;96354.81;5032278;28;20033;-63
2023/11/19 07:50:27;;;;;;;69.68;63.58;;;;;;;3.26;100.00;96363.56;5028086;28;20078;-63
2023/11/19 07:52:53;;;;;;;59.38;54.08;;;;;;;3.24;100.00;96358.41;5029272;28;20021;-63
2023/11/19 07:55:19;;;;;;;31.73;28.33;;;;;;;3.18;100.00;96358.75;5026735;28;20037;-64
2023/11/19 07:57:44;;;;;;;28.02;25.38;;;;;;;3.20;100.00;96358.66;5020675;28;20025;-64
2023/11/19 08:00:12;;;;;;;26.60;24.02;;;;;;;3.23;100.00;96364.53;5018343;28;20045;-63
2023/11/19 08:02:38;;;;;;;28.02;25.20;;;;;;;3.23;100.00;96368.94;5021482;28;20021;-64
2023/11/19 08:05:04;;;;;;;30.65;27.70;;;;;;;3.25;100.00;96369.69;5023710;28;20029;-63
2023/11/19 08:07:29;;;;;;;37.95;33.95;;;;;;;3.28;100.00;96372.13;5023615;28;20030;-64
2023/11/19 08:09:54;;;;;;;33.33;29.92;;;;;;;3.28;100.00;96369.53;5019351;28;20025;-63
2023/11/19 08:12:20;;;;;;;29.65;26.60;;;;;;;3.28;100.00;96367.75;5026701;28;20109;-63
2023/11/19 08:14:45;;;;;;;39.88;36.45;;;;;;;3.30;100.00;96370.28;5028185;28;20471;-62
2023/11/19 08:17:10;;;;;;;33.40;29.90;;;;;;;3.33;100.00;96364.91;5024359;28;20513;-63
2023/11/19 08:19:36;;;;;;;32.75;29.45;;;;;;;3.35;100.00;96357.84;5020415;28;20069;-64
2023/11/19 08:22:02;;;;;;;40.17;36.88;;;;;;;3.40;100.00;96349.81;5031420;28;20079;-63
2023/11/19 08:24:28;;;;;;;33.10;29.80;;;;;;;3.43;100.00;96347.91;5029631;28;20030;-63
2023/11/19 08:26:53;;;;;;;33.35;30.15;;;;;;;3.46;100.00;96343.44;5024287;28;20026;-63
2023/11/19 08:29:19;;;;;;;31.48;28.27;;;;;;;3.45;100.00;96345.19;5023002;28;20378;-64
2023/11/19 08:31:45;;;;;;;31.35;28.48;;;;;;;3.47;100.00;96342.53;5022041;28;20026;-64
2023/11/19 08:34:11;;;;;;;31.42;28.48;;;;;;;3.50;100.00;96339.75;5018418;28;20034;-63
2023/11/19 08:36:37;;;;;;;30.00;27.17;;;;;;;3.52;100.00;96346.53;5030045;28;20030;-63
2023/11/19 08:39:03;;;;;;;28.52;25.73;;;;;;;3.53;100.00;96344.78;5019583;28;20041;-64
2023/11/19 08:41:28;;;;;;;29.10;26.75;;;;;;;3.60;100.00;96342.69;5019125;28;20020;-62
2023/11/19 08:43:53;;;;;;;33.83;30.77;;;;;;;3.66;100.00;96339.75;5022240;28;20033;-63
2023/11/19 08:46:19;;;;;;;29.83;26.92;;;;;;;3.75;100.00;96348.84;5023959;28;20017;-64
2023/11/19 08:48:45;;;;;;;38.53;34.85;;;;;;;3.77;100.00;96352.19;5027942;28;20025;-64
2023/11/19 08:51:11;;;;;;;49.95;45.30;;;;;;;3.81;100.00;96358.91;5025010;28;20039;-63
2023/11/19 08:53:37;;;;;;;45.42;41.20;;;;;;;3.88;100.00;96360.28;5026486;28;20112;-63
2023/11/19 08:56:02;;;;;;;44.17;40.03;;;;;;;3.95;100.00;96355.53;5025367;28;20018;-64
2023/11/19 08:58:28;;;;;;;60.58;54.45;;;;;;;4.26;100.00;96353.84;5021461;28;20058;-64
2023/11/19 09:00:54;;;;;;;109.25;98.60;;;;;;;4.74;100.00;96353.72;5022088;28;20021;-64
2023/11/19 09:03:20;;;;;;;97.93;87.20;;;;;;;5.16;100.00;96354.72;5024655;28;20148;-63
2023/11/19 09:05:45;;;;;;;66.60;59.70;;;;;;;5.53;100.00;96346.44;5026542;28;20061;-63
2023/11/19 09:08:11;;;;;;;58.22;52.38;;;;;;;5.83;100.00;96345.44;5016740;28;20030;-63
2023/11/19 09:10:37;;;;;;;87.10;78.78;;;;;;;6.14;100.00;96343.53;5016480;28;20025;-63
2023/11/19 09:13:03;;;;;;;79.63;71.78;;;;;;;6.40;100.00;96340.16;5027803;28;20052;-63
2023/11/19 09:15:29;;;;;;;62.08;55.33;;;;;;;6.68;100.00;96338.34;5016014;28;20558;-64
2023/11/19 09:17:54;;;;;;;48.72;43.88;;;;;;;6.97;100.00;96338.19;5023917;28;20050;-63
2023/11/19 09:20:20;;;;;;;40.38;36.42;;;;;;;7.28;100.00;96333.47;5025824;28;20099;-64
2023/11/19 09:22:46;;;;;;;49.17;44.63;;;;;;;7.62;100.00;96333.72;5029593;28;20044;-64
2023/11/19 09:25:11;;;;;;;28.23;25.35;;;;;;;7.94;100.00;96329.78;5022061;28;20052;-63
2023/11/19 09:27:37;;;;;;;23.20;20.85;;;;;;;8.28;100.00;96332.59;5027396;28;20024;-64
2023/11/19 09:30:03;;;;;;;33.17;30.38;;;;;;;8.56;100.00;96336.69;5021380;28;20084;-64
2023/11/19 09:32:29;;;;;;;44.72;40.30;;;;;;;8.85;100.00;96333.66;5022357;28;20065;-64
2023/11/19 09:34:54;;;;;;;37.92;34.22;;;;;;;9.09;100.00;96337.19;5026178;28;20030;-64
2023/11/19 09:37:19;;;;;;;32.90;29.40;;;;;;;9.33;100.00;96337.09;5015314;28;20025;-64
2023/11/19 09:39:45;;;;;;;21.35;19.45;;;;;;;9.53;100.00;96337.34;5020664;28;20109;-64
2023/11/19 09:42:12;;;;;;;11.68;10.55;;;;;;;9.67;100.00;96346.78;5021261;28;20038;-64
2023/11/19 09:44:39;;;;;;;12.13;10.00;;;;;;;9.80;100.00;96349.25;5015675;28;20013;-64
2023/11/19 09:47:06;;;;;;;8.23;7.43;;;;;;;9.91;100.00;96353.69;5016064;28;20109;-64
2023/11/19 09:49:33;;;;;;;3.75;3.35;;;;;;;9.98;100.00;96352.25;5016204;28;20026;-64
2023/11/19 09:51:58;;;;;;;2.67;2.10;;;;;;;10.08;100.00;96331.31;5032585;28;20026;-64
2023/11/19 09:54:24;;;;;;;2.90;1.80;;;;;;;10.16;100.00;96345.50;5017411;28;20030;-64
2023/11/19 09:56:49;;;;;;;1.77;1.70;;;;;;;10.24;100.00;96376.47;5035119;28;20519;-64
2023/11/19 09:59:15;;;;;;;3.08;2.85;;;;;;;10.35;100.00;96396.66;5017407;28;20073;-64
2023/11/19 10:01:42;;;;;;;5.57;4.40;;;;;;;10.42;100.00;96421.59;5019130;28;20109;-64
2023/11/19 10:04:07;;;;;;;5.80;5.18;;;;;;;10.33;100.00;96448.59;5016656;28;20029;-64
2023/11/19 10:06:33;;;;;;;5.70;3.78;;;;;;;10.20;100.00;96453.16;5015429;28;20022;-64
2023/11/19 10:08:59;;;;;;;3.72;3.20;;;;;;;10.26;100.00;96476.34;5017800;28;20052;-65
2023/11/19 10:11:25;;;;;;;4.00;3.60;;;;;;;10.22;100.00;96478.38;5025041;28;20033;-64
2023/11/19 10:13:53;;;;;;;3.90;3.60;;;;;;;10.20;100.00;96487.38;5029530;28;20026;-64
2023/11/19 10:16:18;;;;;;;3.83;3.40;;;;;;;10.27;100.00;96494.63;5020613;28;20083;-64
2023/11/19 10:18:48;;;;;;;3.88;3.58;;;;;;;10.37;100.00;96494.75;5014451;28;20049;-64
2023/11/19 10:21:17;;;;;;;3.00;2.70;;;;;;;10.54;100.00;96501.38;5027404;28;20075;-64
2023/11/19 10:23:51;;;;;;;3.45;3.25;;;;;;;10.80;100.00;96503.72;5028228;28;20028;-64
2023/11/19 10:26:17;;;;;;;4.60;4.30;;;;;;;11.06;100.00;96508.66;5020093;28;20029;-64
2023/11/19 10:28:45;;;;;;;6.03;4.57;;;;;;;11.27;100.00;96503.47;5024450;28;20029;-64
2023/11/19 10:31:15;;;;;;;3.65;3.22;;;;;;;11.37;100.00;96518.50;5029229;28;20044;-65
2023/11/19 10:33:41;;;;;;;7.30;4.03;;;;;;;11.40;100.00;96527.00;5024979;28;20053;-64
2023/11/19 10:36:07;;;;;;;8.38;4.90;;;;;;;11.52;100.00;96532.22;5028537;28;20416;-64
2023/11/19 10:38:33;;;;;;;3.70;3.20;;;;;;;11.70;100.00;96543.03;5032698;28;20053;-64
2023/11/19 10:40:59;;;;;;;2.95;2.42;;;;;;;12.03;100.00;96535.91;5019286;28;20022;-64
2023/11/19 10:43:24;;;;;;;2.10;2.00;;;;;;;12.29;100.00;96506.44;5022286;28;20030;-64
2023/11/19 10:45:50;;;;;;;3.70;1.95;;;;;;;12.28;100.00;96492.44;5033803;28;20478;-64
2023/11/19 10:48:16;;;;;;;2.00;1.80;;;;;;;12.30;100.00;96482.56;5026605;28;20029;-64
2023/11/19 10:50:44;;;;;;;3.25;2.05;;;;;;;12.41;100.00;96483.41;5015369;28;20021;-64
2023/11/19 10:53:13;;;;;;;2.53;2.42;;;;;;;12.42;100.00;96463.97;5026454;28;20030;-65
2023/11/19 10:55:39;;;;;;;1.73;1.63;;;;;;;12.43;100.00;96453.28;5027952;28;20037;-64
2023/11/19 10:58:06;;;;;;;2.30;2.10;;;;;;;12.52;100.00;96453.44;5022825;28;20047;-64
2023/11/19 11:00:52;;;;;;;2.45;2.30;;;;;;;12.55;100.00;96454.00;5030994;28;20976;-64
2023/11/19 11:03:20;;;;;;;2.15;2.05;;;;;;;12.85;100.00;96452.22;5025197;28;20387;-65
2023/11/19 11:05:50;;;;;;;3.35;2.08;;;;;;;12.76;100.00;96450.44;5014745;28;20058;-64
2023/11/19 11:08:18;;;;;;;2.00;1.90;;;;;;;12.86;100.00;96447.81;5014845;28;20018;-64
2023/11/19 11:10:55;;;;;;;2.60;1.73;;;;;;;12.95;100.00;96452.25;5021690;28;20071;-64
2023/11/19 11:13:23;;;;;;;2.53;2.33;;;;;;;13.04;100.00;96469.94;5022321;28;20022;-64
2023/11/19 11:15:50;;;;;;;1.92;1.83;;;;;;;13.06;100.00;96490.94;5018624;28;20470;-65